Time;durP1;ratioP1;P1;durP2;ratioP2;P2;SDS_P1;SDS_P2;PMS_P1;PMS_P2;Temp;Humidity;BMP_temperature;BMP_pressure;BME280_temperature;BME280_humidity;BME280_pressure;Samples;Min_cycle;Max_cycle;Signal;HPM_P1;HPM_P2
2023/02/10 00:00:16;;;;;;;44.20;21.17;;;3.10;99.90;;;;;;5034049;28;20245;-83
2023/02/10 00:02:43;;;;;;;40.70;19.93;;;3.10;99.90;;;;;;5033991;28;20235;-82
2023/02/10 00:05:09;;;;;;;41.00;21.67;;;3.10;99.90;;;;;;5034445;28;20224;-82
2023/02/10 00:07:36;;;;;;;40.07;22.43;;;3.10;99.90;;;;;;5034089;28;20566;-83
2023/02/10 00:10:03;;;;;;;42.63;20.23;;;3.10;99.90;;;;;;5034659;28;20200;-83
2023/02/10 00:12:30;;;;;;;45.90;22.70;;;3.10;99.90;;;;;;5033515;28;20227;-83
2023/02/10 00:14:58;;;;;;;43.30;22.80;;;3.10;99.90;;;;;;5034452;28;20203;-83
2023/02/10 00:17:25;;;;;;;48.73;24.13;;;3.10;99.90;;;;;;5034327;28;20285;-83
2023/02/10 00:19:51;;;;;;;43.40;23.67;;;3.10;99.90;;;;;;5038489;28;20623;-83
2023/02/10 00:22:18;;;;;;;39.97;21.57;;;3.10;99.90;;;;;;5053083;28;20215;-83
2023/02/10 00:24:45;;;;;;;41.93;21.03;;;3.10;99.90;;;;;;5054039;28;20194;-83
2023/02/10 00:27:12;;;;;;;42.50;22.77;;;3.10;99.90;;;;;;5053509;28;20237;-84
2023/02/10 00:29:39;;;;;;;46.47;22.57;;;3.20;99.90;;;;;;5054268;28;20289;-83
2023/02/10 00:32:07;;;;;;;46.20;23.37;;;3.10;99.90;;;;;;5053605;28;20279;-83
2023/02/10 00:34:33;;;;;;;45.73;23.20;;;3.10;99.90;;;;;;5050355;28;20213;-83
2023/02/10 00:37:00;;;;;;;48.30;24.67;;;3.00;99.90;;;;;;5052803;28;20210;-83
2023/02/10 00:39:27;;;;;;;50.73;24.87;;;3.00;99.90;;;;;;5052100;28;20202;-83
2023/02/10 00:41:54;;;;;;;46.13;23.30;;;3.00;99.90;;;;;;5052191;28;20787;-82
2023/02/10 00:44:21;;;;;;;45.37;23.93;;;3.00;99.90;;;;;;5051896;28;20211;-83
2023/02/10 00:46:48;;;;;;;45.87;22.80;;;3.00;99.90;;;;;;5052142;28;20214;-83
2023/02/10 00:49:16;;;;;;;42.87;23.27;;;3.00;99.90;;;;;;5054267;28;20203;-83
2023/02/10 00:51:42;;;;;;;48.73;22.73;;;3.00;99.90;;;;;;5054006;28;20591;-83
2023/02/10 00:54:11;;;;;;;47.57;24.20;;;3.00;99.90;;;;;;5053800;28;20225;-83
2023/02/10 00:56:38;;;;;;;49.80;23.90;;;3.00;99.90;;;;;;5053290;28;20199;-84
2023/02/10 00:59:05;;;;;;;47.87;23.07;;;3.00;99.90;;;;;;5052815;28;20207;-82
2023/02/10 01:01:32;;;;;;;43.33;23.93;;;3.00;99.90;;;;;;5053493;28;20230;-83
2023/02/10 01:03:59;;;;;;;49.07;24.80;;;3.00;99.90;;;;;;5053527;28;20206;-83
2023/02/10 01:06:27;;;;;;;45.70;23.43;;;3.00;99.90;;;;;;5053877;28;20226;-83
2023/02/10 01:08:53;;;;;;;46.47;23.60;;;2.90;99.90;;;;;;5053793;28;20568;-83
2023/02/10 01:11:20;;;;;;;47.33;25.53;;;2.90;99.90;;;;;;5050327;28;20230;-83
2023/02/10 01:13:47;;;;;;;45.17;23.03;;;2.90;99.90;;;;;;5038642;28;20202;-84
2023/02/10 01:16:17;;;;;;;47.23;23.87;;;2.90;99.90;;;;;;5056863;28;20233;-84
2023/02/10 01:18:44;;;;;;;46.70;24.07;;;2.90;99.90;;;;;;5056877;28;20198;-83
2023/02/10 01:21:14;;;;;;;43.43;23.93;;;2.90;99.90;;;;;;5057299;28;20199;-84
2023/02/10 01:23:42;;;;;;;43.50;23.73;;;2.90;99.90;;;;;;5056360;28;20199;-84
2023/02/10 01:26:10;;;;;;;47.77;24.97;;;2.90;99.90;;;;;;5057077;28;20219;-83
2023/02/10 01:28:37;;;;;;;48.60;25.47;;;2.80;99.90;;;;;;5057117;28;20209;-83
2023/02/10 01:31:06;;;;;;;48.27;24.87;;;2.80;99.90;;;;;;5057001;28;20203;-83
2023/02/10 01:33:33;;;;;;;50.57;24.27;;;2.90;99.90;;;;;;5056592;28;20195;-84
2023/02/10 01:36:04;;;;;;;48.87;25.17;;;2.90;99.90;;;;;;5057657;28;20194;-83
2023/02/10 01:38:31;;;;;;;50.10;25.53;;;2.80;99.90;;;;;;5056661;28;20249;-83
2023/02/10 01:41:00;;;;;;;49.30;24.43;;;2.80;99.90;;;;;;5056349;28;20635;-83
2023/02/10 01:43:26;;;;;;;56.10;26.13;;;2.90;99.90;;;;;;5056385;28;20563;-83
2023/02/10 01:45:53;;;;;;;51.37;25.90;;;2.80;99.90;;;;;;5056679;28;20227;-83
2023/02/10 01:48:20;;;;;;;50.00;24.33;;;2.80;99.90;;;;;;5056931;28;20206;-84
2023/02/10 01:50:52;;;;;;;39.33;23.07;;;2.80;99.90;;;;;;5056273;28;20203;-83
2023/02/10 01:53:20;;;;;;;49.47;24.17;;;2.80;99.90;;;;;;5036459;28;20204;-83
2023/02/10 01:55:50;;;;;;;47.33;24.57;;;2.80;99.90;;;;;;5036799;28;20211;-83
2023/02/10 01:58:22;;;;;;;52.60;25.90;;;2.80;99.90;;;;;;5037016;28;20212;-83
2023/02/10 02:00:48;;;;;;;47.53;25.20;;;2.70;99.90;;;;;;5036511;28;20851;-83
2023/02/10 02:03:16;;;;;;;47.77;23.90;;;2.70;99.90;;;;;;5036414;28;20601;-83
2023/02/10 02:05:44;;;;;;;46.17;25.10;;;2.80;99.90;;;;;;5036345;28;20204;-83
2023/02/10 02:08:14;;;;;;;46.20;24.03;;;2.80;99.90;;;;;;5035086;28;20211;-83
2023/02/10 02:10:58;;;;;;;51.63;23.87;;;2.80;99.90;;;;;;5036013;28;20188;-83
2023/02/10 02:13:41;;;;;;;48.83;26.73;;;2.90;99.90;;;;;;5036594;28;20615;-83
2023/02/10 02:16:19;;;;;;;46.40;23.77;;;3.00;99.90;;;;;;5036509;28;20199;-84
2023/02/10 02:18:51;;;;;;;54.53;27.73;;;3.00;99.90;;;;;;5048169;28;20202;-85
2023/02/10 02:21:43;;;;;;;48.50;25.43;;;3.00;99.90;;;;;;5055846;28;20610;-84
2023/02/10 02:24:29;;;;;;;51.37;25.50;;;3.00;99.90;;;;;;5050063;28;20205;-83
2023/02/10 02:27:34;;;;;;;51.90;24.03;;;3.00;99.90;;;;;;5049153;28;20215;-82
2023/02/10 02:30:27;;;;;;;44.63;23.97;;;3.00;99.90;;;;;;5056887;28;20194;-83
2023/02/10 02:33:01;;;;;;;48.37;24.53;;;3.00;99.90;;;;;;5053215;28;20218;-83
2023/02/10 02:35:37;;;;;;;49.37;25.63;;;3.00;99.90;;;;;;5055458;28;20235;-82
2023/02/10 02:38:04;;;;;;;48.07;24.30;;;3.00;99.90;;;;;;5055472;28;20202;-84
2023/02/10 02:40:31;;;;;;;50.97;25.77;;;2.90;99.90;;;;;;5054532;28;20203;-83
2023/02/10 02:42:57;;;;;;;48.57;23.37;;;2.90;99.90;;;;;;5054530;28;20310;-83
2023/02/10 02:45:33;;;;;;;47.87;25.13;;;2.90;99.90;;;;;;5053188;28;20218;-82
2023/02/10 02:48:21;;;;;;;45.70;25.20;;;2.80;99.90;;;;;;5054724;28;20292;-83
2023/02/10 02:50:55;;;;;;;53.27;25.33;;;2.80;99.90;;;;;;5054257;28;20580;-83
2023/02/10 02:53:29;;;;;;;47.10;23.23;;;2.70;99.90;;;;;;5053439;28;20206;-82
2023/02/10 02:56:05;;;;;;;45.90;23.17;;;2.70;99.90;;;;;;5054899;28;20281;-83
2023/02/10 02:58:39;;;;;;;49.43;24.70;;;2.70;99.90;;;;;;5054889;28;20207;-83
2023/02/10 03:01:13;;;;;;;46.00;24.73;;;2.70;99.90;;;;;;5054248;28;20301;-82
2023/02/10 03:03:41;;;;;;;45.13;23.83;;;2.60;99.90;;;;;;5053973;28;20202;-83
2023/02/10 03:06:08;;;;;;;46.90;23.37;;;2.60;99.90;;;;;;5054000;28;20219;-84
2023/02/10 03:08:38;;;;;;;41.43;22.43;;;2.60;99.90;;;;;;5054329;28;20199;-83
2023/02/10 03:11:05;;;;;;;44.33;23.60;;;2.50;99.90;;;;;;5054101;28;20685;-83
2023/02/10 03:13:31;;;;;;;44.80;24.23;;;2.50;99.90;;;;;;5053326;28;20211;-83
2023/02/10 03:15:59;;;;;;;45.37;23.27;;;2.50;99.90;;;;;;5053745;28;20198;-83
2023/02/10 03:18:26;;;;;;;45.77;23.13;;;2.50;99.90;;;;;;5054792;28;20237;-83
2023/02/10 03:20:54;;;;;;;45.50;24.60;;;2.50;99.90;;;;;;5053358;28;20573;-84
2023/02/10 03:23:21;;;;;;;48.63;24.67;;;2.50;99.90;;;;;;5053191;28;20207;-84
2023/02/10 03:25:48;;;;;;;49.50;27.23;;;2.50;99.90;;;;;;5054260;28;20190;-84
2023/02/10 03:28:15;;;;;;;50.17;24.90;;;2.50;99.90;;;;;;5052699;28;20260;-83
2023/02/10 03:30:50;;;;;;;47.40;24.83;;;2.50;99.90;;;;;;5054594;28;20655;-83
2023/02/10 03:33:17;;;;;;;49.47;26.57;;;2.50;99.90;;;;;;5054230;28;20702;-83
2023/02/10 03:35:45;;;;;;;48.70;25.43;;;2.40;99.90;;;;;;5053112;28;20659;-84
2023/02/10 03:38:14;;;;;;;45.90;24.50;;;2.50;99.90;;;;;;5054286;28;20221;-83
2023/02/10 03:40:41;;;;;;;47.80;25.20;;;2.50;99.90;;;;;;5054731;28;20667;-83
2023/02/10 03:43:08;;;;;;;50.97;25.63;;;2.40;99.90;;;;;;5052649;28;20223;-82
2023/02/10 03:45:34;;;;;;;49.03;24.67;;;2.30;99.90;;;;;;5053343;28;20209;-84
2023/02/10 03:48:02;;;;;;;46.90;23.67;;;2.30;99.90;;;;;;5053205;28;20222;-83
2023/02/10 03:50:29;;;;;;;53.97;24.40;;;2.30;99.90;;;;;;5054275;28;20199;-83
2023/02/10 03:52:56;;;;;;;48.43;25.13;;;2.30;99.90;;;;;;5053730;28;20215;-82
2023/02/10 03:55:24;;;;;;;51.93;25.83;;;2.30;99.90;;;;;;5053241;28;20689;-82
2023/02/10 03:57:51;;;;;;;49.47;25.37;;;2.30;99.90;;;;;;5052693;28;20206;-83
2023/02/10 04:00:18;;;;;;;49.27;25.67;;;2.20;99.90;;;;;;5052977;28;20613;-82
2023/02/10 04:02:45;;;;;;;55.53;25.80;;;2.20;99.90;;;;;;5054041;28;20254;-83
2023/02/10 04:05:12;;;;;;;54.27;24.70;;;2.20;99.90;;;;;;5052659;28;20203;-83
2023/02/10 04:07:39;;;;;;;53.60;27.23;;;2.20;99.90;;;;;;5054142;28;20583;-83
2023/02/10 04:10:07;;;;;;;48.73;24.60;;;2.20;99.90;;;;;;5054578;28;20207;-83
2023/02/10 04:12:35;;;;;;;52.50;26.90;;;2.20;99.90;;;;;;5054907;28;20214;-82
2023/02/10 04:15:02;;;;;;;51.20;26.10;;;2.20;99.90;;;;;;5053406;28;20211;-82
2023/02/10 04:17:28;;;;;;;55.63;26.70;;;2.20;99.90;;;;;;5055358;28;20643;-83
2023/02/10 04:19:55;;;;;;;47.13;24.97;;;2.30;99.90;;;;;;5039020;28;20207;-84
2023/02/10 04:22:22;;;;;;;50.23;26.23;;;2.30;99.90;;;;;;5054414;28;20826;-83
2023/02/10 04:24:49;;;;;;;49.47;24.87;;;2.30;99.90;;;;;;5053079;28;20572;-84
2023/02/10 04:27:15;;;;;;;49.27;26.17;;;2.30;99.90;;;;;;5054209;28;20709;-83
2023/02/10 04:29:44;;;;;;;55.63;28.30;;;2.30;99.90;;;;;;5053553;28;20206;-83
2023/02/10 04:32:10;;;;;;;51.03;25.63;;;2.30;99.90;;;;;;5055321;28;20866;-83
2023/02/10 04:34:37;;;;;;;49.17;25.37;;;2.30;99.90;;;;;;5053998;28;20686;-83
2023/02/10 04:37:04;;;;;;;50.33;26.27;;;2.40;99.90;;;;;;5055409;28;20203;-82
2023/02/10 04:39:31;;;;;;;47.47;25.60;;;2.40;99.90;;;;;;5054302;28;20210;-82
2023/02/10 04:41:57;;;;;;;47.50;25.40;;;2.40;99.90;;;;;;5054987;28;20222;-82
2023/02/10 04:44:24;;;;;;;55.20;26.87;;;2.40;99.90;;;;;;5053344;28;20656;-82
2023/02/10 04:46:52;;;;;;;48.23;23.47;;;2.40;99.90;;;;;;5056270;28;20313;-82
2023/02/10 04:49:19;;;;;;;53.33;24.90;;;2.40;99.90;;;;;;5059798;28;20203;-82
2023/02/10 04:51:46;;;;;;;44.53;23.17;;;2.50;99.90;;;;;;5058553;28;20222;-82
2023/02/10 04:54:13;;;;;;;51.17;23.97;;;2.50;99.90;;;;;;5059809;28;20215;-82
2023/02/10 04:56:40;;;;;;;48.23;23.50;;;2.60;99.90;;;;;;5058976;28;20199;-82
2023/02/10 04:59:07;;;;;;;43.07;22.93;;;2.50;99.90;;;;;;5059214;28;20206;-82
2023/02/10 05:01:34;;;;;;;47.50;24.33;;;2.50;99.90;;;;;;5058874;28;20249;-82
2023/02/10 05:04:02;;;;;;;43.53;24.57;;;2.50;99.90;;;;;;5057500;28;20198;-82
2023/02/10 05:06:29;;;;;;;40.77;23.07;;;2.60;99.90;;;;;;5059774;28;20207;-83
2023/02/10 05:08:56;;;;;;;40.43;22.10;;;2.60;99.90;;;;;;5058764;28;20668;-82
2023/02/10 05:11:23;;;;;;;42.57;21.77;;;2.60;99.90;;;;;;5059267;28;20227;-82
2023/02/10 05:13:49;;;;;;;40.30;21.40;;;2.60;99.90;;;;;;5058587;28;20199;-82
2023/02/10 05:16:17;;;;;;;45.63;24.07;;;2.60;99.90;;;;;;5058336;28;20191;-82
2023/02/10 05:18:44;;;;;;;40.17;20.57;;;2.60;99.90;;;;;;5059031;28;20195;-82
2023/02/10 05:21:14;;;;;;;38.47;21.40;;;2.60;99.90;;;;;;5058180;28;20305;-82
2023/02/10 05:23:41;;;;;;;41.07;22.40;;;2.60;99.90;;;;;;5058095;28;20233;-82
2023/02/10 05:26:08;;;;;;;43.70;22.77;;;2.60;99.90;;;;;;5058311;28;20207;-82
2023/02/10 05:28:35;;;;;;;47.10;22.07;;;2.60;99.90;;;;;;5057311;28;20235;-81
2023/02/10 05:31:03;;;;;;;46.97;23.53;;;2.60;99.90;;;;;;5058054;28;20686;-81
2023/02/10 05:33:30;;;;;;;43.37;22.77;;;2.60;99.90;;;;;;5057837;28;20203;-82
2023/02/10 05:35:57;;;;;;;36.07;20.57;;;2.50;99.90;;;;;;5057565;28;20207;-82
2023/02/10 05:38:26;;;;;;;41.77;20.67;;;2.60;99.90;;;;;;5058015;28;20207;-82
2023/02/10 05:40:53;;;;;;;41.90;21.20;;;2.70;99.90;;;;;;5057759;28;20209;-82
2023/02/10 05:43:20;;;;;;;45.50;23.10;;;2.60;99.90;;;;;;5057097;28;20207;-82
2023/02/10 05:45:47;;;;;;;41.70;21.43;;;2.60;99.90;;;;;;5058060;28;20211;-82
2023/02/10 05:48:14;;;;;;;48.97;22.90;;;2.60;99.90;;;;;;5057444;28;20223;-82
2023/02/10 05:50:41;;;;;;;44.67;22.47;;;2.60;99.90;;;;;;5057212;28;20285;-82
2023/02/10 05:53:08;;;;;;;40.00;21.30;;;2.60;99.90;;;;;;5057072;28;20284;-82
2023/02/10 05:55:36;;;;;;;40.60;21.17;;;2.60;99.90;;;;;;5058019;28;20298;-83
2023/02/10 05:58:03;;;;;;;41.00;20.97;;;2.70;99.90;;;;;;5056848;28;20204;-82
2023/02/10 06:00:29;;;;;;;39.40;20.47;;;2.60;99.90;;;;;;5058120;28;20309;-82
2023/02/10 06:02:56;;;;;;;46.60;21.37;;;2.70;99.90;;;;;;5056870;28;20219;-82
2023/02/10 06:05:23;;;;;;;43.57;21.30;;;2.70;99.90;;;;;;5057319;28;20207;-81
2023/02/10 06:07:50;;;;;;;44.13;22.43;;;2.70;99.90;;;;;;5051785;28;20721;-81
2023/02/10 06:10:17;;;;;;;45.90;22.40;;;2.70;99.90;;;;;;5050001;28;20202;-82
2023/02/10 06:12:45;;;;;;;42.90;22.13;;;2.70;99.90;;;;;;5057586;28;20683;-82
2023/02/10 06:15:12;;;;;;;43.90;22.67;;;2.70;99.90;;;;;;5055398;28;20221;-82
2023/02/10 06:17:38;;;;;;;46.33;23.47;;;2.70;99.90;;;;;;5055552;28;20574;-83
2023/02/10 06:20:07;;;;;;;45.93;23.53;;;2.80;99.90;;;;;;5064385;28;20198;-84
2023/02/10 06:22:34;;;;;;;44.43;22.43;;;2.80;99.90;;;;;;5062179;28;20231;-87
2023/02/10 06:25:07;;;;;;;47.47;24.33;;;2.70;99.90;;;;;;5065269;28;20219;-83
2023/02/10 06:27:36;;;;;;;52.07;23.67;;;2.70;99.90;;;;;;5068392;28;20278;-82
2023/02/10 06:30:05;;;;;;;40.27;22.43;;;2.70;99.90;;;;;;5069772;28;20262;-86
2023/02/10 06:32:32;;;;;;;46.57;22.30;;;2.70;99.90;;;;;;5070409;28;20227;-85
2023/02/10 06:34:58;;;;;;;45.83;23.23;;;2.60;99.90;;;;;;5071031;28;20241;-83
2023/02/10 06:37:25;;;;;;;48.17;24.67;;;2.60;99.90;;;;;;5070423;28;20203;-85
2023/02/10 06:39:52;;;;;;;48.63;22.93;;;2.60;99.90;;;;;;5056390;28;20297;-84
2023/02/10 06:42:19;;;;;;;43.80;23.00;;;2.60;99.90;;;;;;5052280;28;20237;-84
2023/02/10 06:44:46;;;;;;;44.93;22.03;;;2.60;99.90;;;;;;5065244;28;20199;-84
2023/02/10 06:47:14;;;;;;;44.23;22.67;;;2.50;99.90;;;;;;5056252;28;20207;-85
2023/02/10 06:49:41;;;;;;;44.77;23.97;;;2.50;99.90;;;;;;5055529;28;20202;-85
2023/02/10 06:52:10;;;;;;;43.43;23.57;;;2.60;99.90;;;;;;5056249;28;20225;-87
2023/02/10 06:54:37;;;;;;;45.23;25.03;;;2.60;99.90;;;;;;5053655;28;20568;-85
2023/02/10 06:57:04;;;;;;;49.83;23.67;;;2.60;99.90;;;;;;5067860;28;20198;-85
2023/02/10 06:59:32;;;;;;;45.50;23.70;;;2.60;99.90;;;;;;5056181;28;20222;-87
2023/02/10 07:02:00;;;;;;;49.20;23.47;;;2.60;99.90;;;;;;5048045;28;20231;-87
2023/02/10 07:04:28;;;;;;;48.83;24.20;;;2.60;99.90;;;;;;5053772;28;20596;-87
2023/02/10 07:06:55;;;;;;;49.37;22.13;;;2.50;99.90;;;;;;5054763;28;20241;-87
2023/02/10 07:09:22;;;;;;;53.10;24.37;;;2.50;99.90;;;;;;5055216;28;20310;-88
2023/02/10 07:11:49;;;;;;;43.23;22.97;;;2.60;99.90;;;;;;5054716;28;20235;-84
2023/02/10 07:14:17;;;;;;;48.17;24.33;;;2.50;99.90;;;;;;5047586;28;20218;-86
2023/02/10 07:16:44;;;;;;;52.53;24.40;;;2.60;99.90;;;;;;5054599;28;20214;-83
2023/02/10 07:19:10;;;;;;;47.57;22.77;;;2.50;99.90;;;;;;5052288;28;20651;-84
2023/02/10 07:21:39;;;;;;;48.13;22.07;;;2.60;99.90;;;;;;5053231;28;20223;-85
2023/02/10 07:24:07;;;;;;;53.50;23.83;;;2.60;99.90;;;;;;5054838;28;20203;-84
2023/02/10 07:26:33;;;;;;;47.63;23.67;;;2.60;99.90;;;;;;5051236;28;20218;-84
2023/02/10 07:29:00;;;;;;;45.00;21.60;;;2.50;99.90;;;;;;5054150;28;20692;-84
2023/02/10 07:31:27;;;;;;;47.73;21.80;;;2.50;99.90;;;;;;5050623;28;20222;-84
2023/02/10 07:33:54;;;;;;;42.10;21.90;;;2.50;99.90;;;;;;5059413;28;20664;-84
2023/02/10 07:36:21;;;;;;;45.40;23.90;;;2.60;99.90;;;;;;5048091;28;20199;-84
2023/02/10 07:38:50;;;;;;;47.47;24.23;;;2.60;99.90;;;;;;5047762;28;20205;-84
2023/02/10 07:41:17;;;;;;;51.67;24.43;;;2.70;99.90;;;;;;5053005;28;20225;-84
2023/02/10 07:43:44;;;;;;;49.47;23.33;;;2.70;99.90;;;;;;5055468;28;20690;-85
2023/02/10 07:46:10;;;;;;;46.83;21.43;;;2.70;99.90;;;;;;5054615;28;20198;-84
2023/02/10 07:48:37;;;;;;;49.30;24.20;;;2.70;99.90;;;;;;5054536;28;20219;-86
2023/02/10 07:51:04;;;;;;;48.57;23.77;;;2.80;99.90;;;;;;5052940;28;20661;-85
2023/02/10 07:53:31;;;;;;;45.07;22.90;;;2.80;99.90;;;;;;5052804;28;20221;-84
2023/02/10 07:56:00;;;;;;;49.27;24.53;;;2.90;99.90;;;;;;5049906;28;20253;-85
2023/02/10 07:58:27;;;;;;;51.40;23.50;;;2.90;99.90;;;;;;5053368;28;20252;-85
2023/02/10 08:00:54;;;;;;;54.47;25.60;;;2.90;99.90;;;;;;5049461;28;20211;-85
2023/02/10 08:03:21;;;;;;;46.83;24.43;;;3.00;99.90;;;;;;5062450;28;20220;-85
2023/02/10 08:05:48;;;;;;;53.70;27.17;;;3.00;99.90;;;;;;5059368;28;20195;-86
2023/02/10 08:08:16;;;;;;;52.00;24.87;;;3.10;99.90;;;;;;5054911;28;20234;-85
2023/02/10 08:10:43;;;;;;;48.70;23.67;;;3.20;99.90;;;;;;5049611;28;20683;-84
2023/02/10 08:13:11;;;;;;;52.03;24.47;;;3.20;99.90;;;;;;5055346;28;20229;-85
2023/02/10 08:15:38;;;;;;;49.90;25.80;;;3.20;99.90;;;;;;5053183;28;20292;-84
2023/02/10 08:18:05;;;;;;;53.30;25.13;;;3.30;99.90;;;;;;5051613;28;20199;-85
2023/02/10 08:20:31;;;;;;;51.37;25.33;;;3.40;99.90;;;;;;5062494;28;20195;-84
2023/02/10 08:22:59;;;;;;;55.20;24.20;;;3.40;99.90;;;;;;5051312;28;20214;-84
2023/02/10 08:25:26;;;;;;;54.13;23.83;;;3.40;99.90;;;;;;5052301;28;20202;-85
2023/02/10 08:27:53;;;;;;;52.53;24.30;;;3.40;99.90;;;;;;5055539;28;20256;-84
2023/02/10 08:30:21;;;;;;;48.13;22.50;;;3.50;99.90;;;;;;5052666;28;20198;-84
2023/02/10 08:32:48;;;;;;;50.63;23.60;;;3.50;99.90;;;;;;5054583;28;20225;-85
2023/02/10 08:35:15;;;;;;;50.77;24.33;;;3.50;99.90;;;;;;5054515;28;20195;-84
2023/02/10 08:37:42;;;;;;;50.07;24.80;;;3.50;99.90;;;;;;5055101;28;20578;-85
2023/02/10 08:40:10;;;;;;;49.97;24.30;;;3.60;99.90;;;;;;5048114;28;20282;-85
2023/02/10 08:42:36;;;;;;;58.70;26.20;;;3.60;99.90;;;;;;5054030;28;20222;-85
2023/02/10 08:45:04;;;;;;;55.37;25.20;;;3.70;99.90;;;;;;5054439;28;20191;-84
2023/02/10 08:47:34;;;;;;;55.93;27.97;;;3.80;99.90;;;;;;5053974;28;20285;-84
2023/02/10 08:50:01;;;;;;;56.97;28.63;;;3.80;99.90;;;;;;5049981;28;20199;-85
2023/02/10 08:52:28;;;;;;;53.70;25.50;;;3.90;99.90;;;;;;5052478;28;20678;-84
2023/02/10 08:54:56;;;;;;;52.03;26.40;;;3.80;99.90;;;;;;5054206;28;20218;-85
2023/02/10 08:57:23;;;;;;;49.57;24.97;;;3.90;99.90;;;;;;5050091;28;20222;-86
2023/02/10 08:59:51;;;;;;;49.60;25.03;;;4.00;99.90;;;;;;5054073;28;20209;-84
2023/02/10 09:02:18;;;;;;;54.60;25.20;;;4.00;99.90;;;;;;5051511;28;20230;-85
2023/02/10 09:04:46;;;;;;;49.63;25.70;;;4.10;99.90;;;;;;5054212;28;20202;-85
2023/02/10 09:07:13;;;;;;;56.33;26.47;;;4.10;99.90;;;;;;5053933;28;20231;-84
2023/02/10 09:09:42;;;;;;;55.27;25.93;;;4.20;99.90;;;;;;5052300;28;20628;-86
2023/02/10 09:12:11;;;;;;;52.17;24.50;;;4.20;99.90;;;;;;5048327;28;20226;-84
2023/02/10 09:14:38;;;;;;;53.33;25.70;;;4.30;99.90;;;;;;5054273;28;20203;-85
2023/02/10 09:17:07;;;;;;;51.90;25.37;;;4.40;99.90;;;;;;5047223;28;20617;-85
2023/02/10 09:19:34;;;;;;;53.13;26.73;;;4.50;99.90;;;;;;5052369;28;20210;-85
2023/02/10 09:22:03;;;;;;;52.10;25.23;;;4.60;99.90;;;;;;5050315;28;20303;-85
2023/02/10 09:24:30;;;;;;;54.73;26.77;;;4.70;99.90;;;;;;5054007;28;20203;-86
2023/02/10 09:26:57;;;;;;;58.47;28.17;;;4.60;99.90;;;;;;5054964;28;20202;-85
2023/02/10 09:29:24;;;;;;;50.17;25.80;;;4.70;99.90;;;;;;5059823;28;20215;-84
2023/02/10 09:31:51;;;;;;;58.00;27.80;;;4.70;99.90;;;;;;5046790;28;20222;-85
2023/02/10 09:34:18;;;;;;;56.67;27.27;;;4.80;99.90;;;;;;5054913;28;20203;-84
2023/02/10 09:36:45;;;;;;;51.97;27.20;;;4.70;99.90;;;;;;5058246;28;20207;-85
2023/02/10 09:39:13;;;;;;;57.93;27.63;;;4.70;99.90;;;;;;5067019;28;20620;-85
2023/02/10 09:41:52;;;;;;;50.30;25.93;;;4.70;99.90;;;;;;5065558;28;20312;-86
2023/02/10 09:44:22;;;;;;;57.63;25.53;;;4.70;99.90;;;;;;5055975;28;20203;-84
2023/02/10 09:47:15;;;;;;;55.70;25.73;;;4.60;99.90;;;;;;5059411;28;20210;-84
2023/02/10 09:50:06;;;;;;;53.90;26.83;;;4.60;99.90;;;;;;5060987;28;20229;-84
2023/02/10 09:52:43;;;;;;;56.60;26.13;;;4.70;99.90;;;;;;5057196;28;20644;-85
2023/02/10 09:55:16;;;;;;;56.50;27.23;;;4.70;99.90;;;;;;5056661;28;20207;-85
2023/02/10 09:57:46;;;;;;;54.87;25.50;;;4.70;99.90;;;;;;5063075;28;20190;-85
2023/02/10 10:00:22;;;;;;;54.27;25.37;;;4.70;99.90;;;;;;5074818;28;20650;-85
2023/02/10 10:02:53;;;;;;;55.63;24.87;;;4.80;99.90;;;;;;5062692;28;20226;-85
2023/02/10 10:05:26;;;;;;;52.70;24.03;;;4.80;99.90;;;;;;5057518;28;20700;-85
2023/02/10 10:07:54;;;;;;;52.13;25.67;;;4.90;99.90;;;;;;5056503;28;20257;-86
2023/02/10 10:10:26;;;;;;;52.83;25.17;;;5.00;99.90;;;;;;5057050;28;20230;-86
2023/02/10 10:12:53;;;;;;;52.27;25.30;;;5.00;99.90;;;;;;5056792;28;20223;-87
2023/02/10 10:15:20;;;;;;;55.73;23.83;;;5.10;99.90;;;;;;5056733;28;20203;-85
2023/02/10 10:18:02;;;;;;;56.10;25.97;;;5.20;99.90;;;;;;5057145;28;20226;-87
2023/02/10 10:20:51;;;;;;;56.00;25.67;;;5.20;99.90;;;;;;5057689;28;20623;-86
2023/02/10 10:23:34;;;;;;;60.67;24.63;;;5.10;99.90;;;;;;5053330;28;20251;-84
2023/02/10 10:26:16;;;;;;;53.70;23.50;;;4.90;99.90;;;;;;5051386;28;20267;-83
2023/02/10 10:29:02;;;;;;;57.77;24.27;;;4.80;99.90;;;;;;5060172;28;20222;-85
2023/02/10 10:31:31;;;;;;;52.17;22.97;;;4.90;99.90;;;;;;5059131;28;20233;-84
2023/02/10 10:34:02;;;;;;;54.40;24.50;;;5.10;99.90;;;;;;5057029;28;20269;-86
2023/02/10 10:36:34;;;;;;;57.50;24.63;;;5.10;99.90;;;;;;5057219;28;20205;-85
2023/02/10 10:39:10;;;;;;;53.00;24.87;;;5.30;99.90;;;;;;5055921;28;20687;-86
2023/02/10 10:41:39;;;;;;;65.43;27.90;;;5.40;99.90;;;;;;5057279;28;20250;-86
2023/02/10 10:44:06;;;;;;;59.13;27.60;;;5.50;99.90;;;;;;5054622;28;20245;-84
2023/02/10 10:46:40;;;;;;;61.43;29.50;;;5.50;99.90;;;;;;5057530;28;20243;-85
2023/02/10 10:49:08;;;;;;;60.93;28.67;;;5.50;99.90;;;;;;5059790;28;20598;-85
2023/02/10 10:51:35;;;;;;;65.00;29.50;;;5.50;99.90;;;;;;5057243;28;20226;-85
2023/02/10 10:54:04;;;;;;;65.77;30.17;;;5.50;99.90;;;;;;5056610;28;20207;-85
2023/02/10 10:56:37;;;;;;;58.80;28.53;;;5.50;99.90;;;;;;5056341;28;20205;-85
2023/02/10 10:59:13;;;;;;;60.47;28.63;;;5.60;99.90;;;;;;5056265;28;20686;-85
2023/02/10 11:01:43;;;;;;;55.87;27.53;;;6.00;99.90;;;;;;5058594;28;20292;-85
2023/02/10 11:04:14;;;;;;;61.53;27.60;;;6.20;99.90;;;;;;5056229;28;20218;-86
2023/02/10 11:06:44;;;;;;;51.70;25.87;;;6.10;99.90;;;;;;5054954;28;20207;-85
2023/02/10 11:09:21;;;;;;;59.07;25.70;;;6.20;99.90;;;;;;5056312;28;20671;-86
2023/02/10 11:11:49;;;;;;;56.00;25.03;;;6.10;99.90;;;;;;5056716;28;20249;-86
2023/02/10 11:14:22;;;;;;;51.10;23.57;;;6.00;99.90;;;;;;5056950;28;20655;-86
2023/02/10 11:16:51;;;;;;;47.47;21.53;;;5.80;99.90;;;;;;5057038;28;20202;-85
2023/02/10 11:19:21;;;;;;;46.27;23.23;;;5.80;99.90;;;;;;5056788;28;20696;-86
2023/02/10 11:21:49;;;;;;;47.87;22.37;;;5.90;99.90;;;;;;5056949;28;20227;-88
2023/02/10 11:24:20;;;;;;;48.07;22.07;;;6.10;99.90;;;;;;5057007;28;20256;-86
2023/02/10 11:26:59;;;;;;;48.57;22.77;;;6.20;99.90;;;;;;5056634;28;20218;-86
2023/02/10 11:29:29;;;;;;;43.83;21.33;;;6.30;99.90;;;;;;5056470;28;20229;-86
2023/02/10 11:31:56;;;;;;;44.50;22.30;;;6.20;99.90;;;;;;5056599;28;20258;-85
2023/02/10 11:34:27;;;;;;;48.73;21.57;;;6.30;99.90;;;;;;5056844;28;20191;-85
2023/02/10 11:36:57;;;;;;;46.93;21.97;;;6.10;99.90;;;;;;5056834;28;20207;-85
2023/02/10 11:39:27;;;;;;;48.60;23.30;;;6.00;99.90;;;;;;5056472;28;20293;-86
2023/02/10 11:41:55;;;;;;;49.40;22.67;;;6.00;99.90;;;;;;5055718;28;20227;-86
2023/02/10 11:44:28;;;;;;;49.67;21.90;;;6.00;99.90;;;;;;5055954;28;20209;-86
2023/02/10 11:46:59;;;;;;;45.93;22.50;;;6.10;99.90;;;;;;5056237;28;20191;-86
2023/02/10 11:49:30;;;;;;;52.83;22.43;;;6.10;99.90;;;;;;5055447;28;20608;-86
2023/02/10 11:51:58;;;;;;;50.97;22.47;;;6.00;99.90;;;;;;5057432;28;20222;-83
2023/02/10 11:54:26;;;;;;;49.23;22.70;;;6.20;99.90;;;;;;5059557;28;20290;-86
2023/02/10 12:00:13;;;;;;;40.90;19.90;;;6.40;99.90;;;;;;4994670;28;20193;-85
2023/02/10 12:03:01;;;;;;;42.40;19.80;;;6.20;99.90;;;;;;5044150;28;20744;-86
2023/02/10 12:05:33;;;;;;;43.33;21.60;;;6.40;99.90;;;;;;5055532;28;20191;-86
2023/02/10 12:08:10;;;;;;;47.97;20.97;;;6.70;99.90;;;;;;5055008;28;20293;-85
2023/02/10 12:10:44;;;;;;;47.97;21.20;;;6.70;99.90;;;;;;5054800;28;20233;-84
2023/02/10 12:13:20;;;;;;;43.47;19.40;;;6.60;99.90;;;;;;5045692;28;20227;-86
2023/02/10 12:15:59;;;;;;;43.63;21.03;;;6.70;99.90;;;;;;5055121;28;20216;-85
2023/02/10 12:18:41;;;;;;;41.73;19.53;;;6.80;99.90;;;;;;5052136;28;20287;-84
2023/02/10 12:21:24;;;;;;;44.37;21.43;;;7.10;99.90;;;;;;5052896;28;20203;-85
2023/02/10 12:24:15;;;;;;;45.37;21.87;;;7.20;99.90;;;;;;5051114;28;20202;-86
2023/02/10 12:26:46;;;;;;;39.70;20.10;;;7.30;99.90;;;;;;5054616;28;20326;-87
2023/02/10 12:29:25;;;;;;;42.00;21.37;;;7.20;99.90;;;;;;5049314;28;20314;-85
2023/02/10 12:32:02;;;;;;;40.97;22.07;;;7.20;99.90;;;;;;5053473;28;20226;-87
2023/02/10 12:34:45;;;;;;;40.97;21.33;;;7.70;99.90;;;;;;5044521;28;20199;-86
2023/02/10 12:37:26;;;;;;;43.90;22.27;;;8.30;99.90;;;;;;5059112;28;20201;-86
2023/02/10 12:40:00;;;;;;;42.50;20.70;;;8.30;99.90;;;;;;5054126;28;20312;-86
2023/02/10 12:42:39;;;;;;;40.87;19.70;;;7.20;99.90;;;;;;5051906;28;20237;-86
2023/02/10 12:45:17;;;;;;;40.37;21.03;;;7.20;99.90;;;;;;5055316;28;20202;-86
2023/02/10 12:47:52;;;;;;;39.53;20.33;;;7.00;99.90;;;;;;5054669;28;20669;-86
2023/02/10 12:50:36;;;;;;;44.73;21.40;;;6.90;99.90;;;;;;5052816;28;20219;-87